Data for 03/04/2018

Time Sea-Level Adjusted Pressure Absolute Pressure Temperature Relative Humidity Dew Point   
(mb) (inHg) (mb) (inHg) (C) (F) (%) (C) (F)
00:05 1012 29.88 841 24.83 -3.9 25 80 -6.8 19.8
00:10 1012 29.88 841 24.83 -3.8 25.1 80 -6.8 19.8
00:15 1012 29.88 841 24.83 -3.9 25.1 80 -6.8 19.8
00:20 1012 29.88 841 24.83 -3.9 25 81 -6.7 19.9
00:25 1012 29.88 841 24.83 -3.9 24.9 81 -6.7 19.9
00:30 1012 29.88 841 24.83 -3.9 24.9 81 -6.7 19.9
00:35 1012 29.88 841 24.83 -3.9 24.9 81 -6.7 20
00:40 1012 29.88 841 24.83 -4 24.9 82 -6.7 20
00:45 1012 29.88 841 24.83 -4 24.8 82 -6.7 20
00:50 1012 29.88 841 24.83 -4 24.8 82 -6.6 20.1
00:55 1011 29.85 841 24.83 -4 24.8 82 -6.7 19.9
01:00 1011 29.85 841 24.83 -4 24.9 81 -6.8 19.8
01:05 1011 29.85 841 24.83 -3.9 24.9 81 -6.7 19.9
01:10 1012 29.88 841 24.83 -3.9 24.9 81 -6.8 19.8
01:15 1012 29.88 841 24.83 -3.9 25 80 -6.8 19.8
01:20 1011 29.85 841 24.83 -3.9 25.1 80 -6.9 19.6
01:25 1011 29.85 841 24.83 -3.9 25.1 79 -6.9 19.6
01:30 1011 29.85 840 24.81 -3.8 25.1 79 -6.9 19.5
01:35 1011 29.85 840 24.81 -3.8 25.1 79 -6.9 19.5
01:40 1011 29.85 840 24.81 -3.8 25.1 79 -7 19.4
01:45 1011 29.85 840 24.81 -3.8 25.2 78 -7.1 19.2
01:50 1011 29.85 841 24.83 -3.7 25.3 78 -7 19.3
01:55 1011 29.85 841 24.83 -3.8 25.2 80 -6.8 19.8
02:00 1012 29.88 841 24.83 -3.8 25.1 82 -6.5 20.3
02:05 1012 29.88 841 24.83 -3.9 24.9 83 -6.4 20.5
02:10 1012 29.88 841 24.83 -4 24.8 84 -6.3 20.6
02:15 1012 29.88 841 24.83 -4 24.7 84 -6.3 20.7
02:20 1012 29.88 841 24.83 -4.1 24.7 86 -6.2 20.9
02:25 1011 29.85 841 24.83 -4.1 24.6 86 -6.1 21
02:30 1011 29.85 841 24.83 -4.2 24.5 87 -6 21.3
02:35 1011 29.85 841 24.83 -4.2 24.4 88 -5.9 21.5
02:40 1012 29.88 841 24.83 -4.2 24.5 89 -5.8 21.6
02:45 1012 29.88 841 24.83 -4.2 24.5 89 -5.7 21.7
02:50 1012 29.88 841 24.83 -4.2 24.5 90 -5.6 21.8
02:55 1011 29.85 841 24.83 -4.2 24.4 90 -5.7 21.8
03:00 1011 29.85 840 24.81 -4.3 24.2 90 -5.7 21.8
03:05 1011 29.85 840 24.81 -4.3 24.3 90 -5.7 21.7
03:10 1011 29.85 840 24.81 -4.4 24.1 90 -5.7 21.7
03:15 1011 29.85 840 24.81 -4.4 24.1 90 -5.8 21.6
03:20 1011 29.85 840 24.81 -4.4 24.1 90 -5.7 21.7
03:25 1011 29.85 840 24.81 -4.4 24.2 91 -5.7 21.8
03:30 1011 29.85 840 24.81 -4.4 24.1 91 -5.7 21.8
03:35 1011 29.85 840 24.81 -4.4 24.2 91 -5.7 21.8
03:40 1011 29.85 840 24.81 -4.4 24.1 91 -5.7 21.7
03:45 1011 29.85 840 24.81 -4.4 24 91 -5.7 21.7
03:50 1011 29.85 840 24.81 -4.4 24.1 91 -5.7 21.7
03:55 1011 29.85 840 24.81 -4.5 24 91 -5.8 21.6
04:00 1011 29.85 840 24.81 -4.5 23.9 90 -5.8 21.5
04:05 1010 29.83 840 24.81 -4.5 23.8 90 -5.9 21.4
04:10 1010 29.83 840 24.81 -4.6 23.8 90 -5.9 21.3
04:15 1010 29.83 840 24.81 -4.6 23.7 90 -6 21.3
04:20 1010 29.83 840 24.81 -4.6 23.8 90 -6 21.2
04:25 1011 29.85 840 24.81 -4.5 24 88 -6.1 21
04:30 1011 29.85 840 24.81 -4.4 24 87 -6.2 20.8
04:35 1011 29.85 840 24.81 -4.3 24.2 87 -6.2 20.9
04:40 1011 29.85 840 24.81 -4.3 24.3 86 -6.3 20.7
04:45 1011 29.85 840 24.81 -4.3 24.3 86 -6.3 20.6
04:50 1011 29.85 840 24.81 -4.3 24.3 86 -6.2 20.8
04:55 1010 29.83 840 24.81 -4.3 24.3 86 -6.3 20.6
05:00 1010 29.83 840 24.81 -4.3 24.3 85 -6.4 20.5
05:05 1010 29.83 840 24.81 -4.3 24.3 86 -6.3 20.6
05:10 1010 29.83 840 24.81 -4.3 24.3 86 -6.3 20.7
05:15 1010 29.83 840 24.81 -4.4 24.2 87 -6.2 20.8
05:20 1010 29.83 840 24.81 -4.4 24.1 87 -6.2 20.8
05:25 1010 29.83 840 24.81 -4.5 24 87 -6.3 20.7
05:30 1010 29.83 840 24.81 -4.5 24 88 -6.2 20.8
05:35 1010 29.83 839 24.78 -4.4 24 88 -6.2 20.9
05:40 1010 29.83 839 24.78 -4.5 23.8 89 -6.2 20.9
05:45 1010 29.83 839 24.78 -4.6 23.8 89 -6.1 21
05:50 1010 29.83 839 24.78 -4.6 23.8 89 -6.1 21
05:55 1010 29.83 839 24.78 -4.5 23.8 89 -6 21.2
06:00 1010 29.83 839 24.78 -4.6 23.8 89 -6.1 21.1
06:05 1010 29.83 839 24.78 -4.7 23.6 89 -6.2 20.8
06:10 1010 29.83 839 24.78 -4.9 23.2 89 -6.4 20.6
06:15 1010 29.83 839 24.78 -5 23 90 -6.4 20.4
06:20 1010 29.83 839 24.78 -5.1 22.8 89 -6.7 20
06:25 1010 29.83 839 24.78 -5.2 22.6 88 -6.8 19.7
06:30 1010 29.83 840 24.81 -5.3 22.4 88 -7 19.5
06:35 1010 29.83 839 24.78 -5.4 22.2 88 -7.1 19.3
06:40 1010 29.83 840 24.81 -5.5 22.1 89 -7 19.4
06:45 1010 29.83 840 24.81 -5.5 22 89 -7.1 19.3
06:50 1010 29.83 840 24.81 -5.6 21.9 89 -7.1 19.2
06:55 1010 29.83 840 24.81 -5.6 21.9 89 -7.1 19.2
07:00 1010 29.83 840 24.81 -5.6 21.8 89 -7.1 19.2
07:05 1010 29.83 840 24.81 -5.7 21.8 89 -7.2 19.1
07:10 1010 29.83 839 24.78 -5.7 21.7 90 -7.1 19.1
07:15 1010 29.83 840 24.81 -5.7 21.8 90 -7.1 19.2
07:20 1010 29.83 840 24.81 -5.7 21.7 90 -7.1 19.2
07:25 1010 29.83 840 24.81 -5.8 21.7 90 -7.1 19.1
07:30 1011 29.85 840 24.81 -5.8 21.6 90 -7.2 19.1
07:35 1011 29.85 840 24.81 -5.8 21.6 90 -7.3 18.9
07:40 1011 29.85 840 24.81 -5.8 21.6 90 -7.2 19
07:45 1011 29.85 840 24.81 -5.8 21.6 90 -7.2 19
07:50 1011 29.85 840 24.81 -5.8 21.6 89 -7.3 18.9
07:55 1011 29.85 840 24.81 -5.8 21.6 90 -7.3 18.9
08:00 1011 29.85 840 24.81 -5.8 21.5 89 -7.3 18.9
08:05 1011 29.85 840 24.81 -5.8 21.5 90 -7.2 19.1
08:10 1011 29.85 840 24.81 -5.7 21.8 90 -7.1 19.3
08:15 1011 29.85 840 24.81 -5.7 21.7 90 -7 19.3
08:20 1011 29.85 840 24.81 -5.6 21.9 90 -7 19.4
08:25 1011 29.85 840 24.81 -5.6 21.9 90 -7 19.3
08:30 1011 29.85 840 24.81 -5.7 21.7 89 -7.2 19
08:35 1011 29.85 840 24.81 -5.7 21.7 89 -7.3 18.9
08:40 1011 29.85 841 24.83 -5.9 21.5 88 -7.5 18.5
08:45 1011 29.85 841 24.83 -6.3 20.7 88 -7.9 17.8
08:50 1012 29.88 841 24.83 -6.4 20.4 89 -8 17.7
08:55 1012 29.88 841 24.83 -6.5 20.3 88 -8.1 17.4
09:00 1012 29.88 841 24.83 -6.5 20.3 89 -8.1 17.5
09:05 1012 29.88 841 24.83 -6.5 20.2 89 -8.1 17.4
09:10 1012 29.88 841 24.83 -6.6 20.1 88 -8.3 17.1
09:15 1012 29.88 841 24.83 -6.6 20.1 88 -8.2 17.2
09:20 1012 29.88 841 24.83 -6.6 20.1 87 -8.4 17
09:25 1012 29.88 841 24.83 -6.8 19.7 87 -8.6 16.5
09:30 1012 29.88 841 24.83 -6.9 19.6 87 -8.7 16.3
09:35 1012 29.88 841 24.83 -7.1 19.1 86 -9.1 15.6
09:40 1012 29.88 841 24.83 -7.4 18.8 86 -9.4 15.1
09:45 1012 29.88 841 24.83 -7.5 18.5 86 -9.5 15
09:50 1012 29.88 841 24.83 -7.6 18.4 86 -9.5 14.9
09:55 1012 29.88 842 24.86 -7.5 18.4 85 -9.6 14.7
10:00 1012 29.88 842 24.86 -7.5 18.4 85 -9.6 14.6
10:05 1012 29.88 842 24.86 -7.6 18.3 85 -9.7 14.5
10:10 1013 29.91 842 24.86 -7.5 18.5 83 -9.8 14.3
10:15 1013 29.91 842 24.86 -7.5 18.6 85 -9.6 14.7
10:20 1013 29.91 842 24.86 -7.4 18.7 85 -9.5 14.9
10:25 1013 29.91 842 24.86 -7.3 18.9 83 -9.6 14.6
10:30 1013 29.91 842 24.86 -7.5 18.5 84 -9.7 14.5
10:35 1013 29.91 842 24.86 -7.3 18.9 83 -9.7 14.5
10:40 1013 29.91 842 24.86 -7.4 18.7 82 -10 14
10:45 1013 29.91 842 24.86 -7.6 18.3 83 -10.1 13.9
10:50 1013 29.91 842 24.86 -7.7 18.1 84 -10 14
10:55 1013 29.91 842 24.86 -7.6 18.4 83 -10 14
11:00 1013 29.91 842 24.86 -7.6 18.2 82 -10.2 13.6
11:05 1013 29.91 842 24.86 -7.7 18.2 82 -10.1 13.7
11:10 1013 29.91 842 24.86 -7.6 18.4 83 -10 14
11:15 1013 29.91 842 24.86 -7.8 18 81 -10.5 13.1
11:20 1013 29.91 842 24.86 -7.9 17.7 82 -10.6 13
11:25 1013 29.91 842 24.86 -7.9 17.8 81 -10.6 12.9
11:30 1013 29.91 842 24.86 -8 17.5 81 -10.8 12.6
11:35 1013 29.91 843 24.89 -8.2 17.3 79 -11.2 11.9
11:40 1013 29.91 843 24.89 -8.3 17.1 81 -11 12.3
11:45 1013 29.91 843 24.89 -7.9 17.9 79 -10.9 12.3
11:50 1013 29.91 843 24.89 -7.9 17.7 81 -10.7 12.7
11:55 1013 29.91 843 24.89 -8 17.7 80 -10.9 12.4
12:00 1014 29.94 843 24.89 -8.5 16.7 81 -11.2 11.9
12:05 1014 29.94 843 24.89 -8.5 16.7 80 -11.3 11.6
12:10 1014 29.94 843 24.89 -8.8 16.2 80 -11.6 11.1
12:15 1014 29.94 843 24.89 -8.9 15.9 81 -11.7 11
12:20 1014 29.94 843 24.89 -9 15.8 82 -11.6 11.2
12:25 1014 29.94 843 24.89 -9.1 15.6 81 -11.8 10.7
12:30 1014 29.94 843 24.89 -9.2 15.5 80 -11.9 10.5
12:35 1014 29.94 843 24.89 -9 15.7 80 -11.9 10.5
12:40 1014 29.94 843 24.89 -9 15.8 81 -11.8 10.8
12:45 1014 29.94 844 24.92 -9.3 15.3 82 -11.9 10.6
12:50 1014 29.94 844 24.92 -9.3 15.2 82 -11.9 10.6
12:55 1014 29.94 844 24.92 -9.3 15.2 82 -11.8 10.7
13:00 1014 29.94 844 24.92 -9.3 15.3 82 -11.8 10.7
13:05 1014 29.94 844 24.92 -9.1 15.6 82 -11.7 11
13:10 1014 29.94 843 24.89 -8.7 16.4 82 -11.3 11.7
13:15 1014 29.94 844 24.92 -8.4 16.9 79 -11.5 11.3
13:20 1014 29.94 844 24.92 -8.6 16.5 80 -11.5 11.2
13:25 1014 29.94 844 24.92 -8.8 16.2 78 -12 10.5
13:30 1014 29.94 844 24.92 -8.8 16.2 78 -12 10.4
13:35 1015 29.97 844 24.92 -8.9 16 78 -12 10.3
13:40 1015 29.97 844 24.92 -9 15.9 77 -12.2 10
13:45 1015 29.97 844 24.92 -9 15.8 78 -12.1 10.2
13:50 1015 29.97 844 24.92 -9.2 15.5 79 -12.1 10.1
13:55 1015 29.97 844 24.92 -9 15.8 77 -12.3 9.8
14:00 1015 29.97 844 24.92 -9.1 15.6 79 -12.1 10.2
14:05 1015 29.97 844 24.92 -9.2 15.4 79 -12.3 9.9
14:10 1015 29.97 844 24.92 -9.1 15.5 79 -12.1 10.2
14:15 1015 29.97 844 24.92 -9.1 15.5 79 -12.1 10.2
14:20 1015 29.97 844 24.92 -9.2 15.5 80 -12 10.4
14:25 1015 29.97 845 24.95 -9.1 15.6 79 -12.1 10.2
14:30 1015 29.97 845 24.95 -9 15.9 79 -11.9 10.6
14:35 1016 30 845 24.95 -8.8 16.1 79 -11.8 10.8
14:40 1016 30 845 24.95 -9 15.8 80 -11.8 10.7
14:45 1016 30 845 24.95 -9.1 15.7 80 -11.8 10.7
14:50 1016 30 845 24.95 -9 15.8 82 -11.6 11.1
14:55 1016 30 845 24.95 -8.8 16.2 80 -11.6 11
15:00 1016 30 845 24.95 -8.8 16.1 79 -11.8 10.8
15:05 1016 30 845 24.95 -8.9 15.9 79 -11.9 10.6
15:10 1016 30 845 24.95 -8.8 16.1 79 -11.9 10.6
15:15 1016 30 845 24.95 -9 15.8 80 -11.8 10.7
15:20 1016 30 845 24.95 -8.9 15.9 81 -11.7 10.9
15:25 1016 30 845 24.95 -9.1 15.6 82 -11.7 10.9
15:30 1016 30 845 24.95 -8.9 15.9 81 -11.6 11.1
15:35 1016 30 845 24.95 -8.9 16.1 81 -11.5 11.3
15:40 1016 30 846 24.98 -8.8 16.1 82 -11.3 11.6
15:45 1017 30.03 846 24.98 -8.8 16.2 82 -11.3 11.6
15:50 1017 30.03 846 24.98 -8.8 16.1 82 -11.4 11.5
15:55 1017 30.03 846 24.98 -8.7 16.3 83 -11.2 11.9
16:00 1017 30.03 846 24.98 -8.7 16.3 84 -11 12.2
16:05 1017 30.03 846 24.98 -8.4 16.8 82 -11 12.2
16:10 1017 30.03 846 24.98 -8.5 16.7 82 -11.1 12
16:15 1017 30.03 846 24.98 -8.7 16.4 82 -11.2 11.8
16:20 1017 30.03 846 24.98 -8.8 16.2 83 -11.2 11.9
16:25 1017 30.03 846 24.98 -8.7 16.4 83 -11 12.2
16:30 1017 30.03 846 24.98 -8.5 16.6 83 -10.9 12.4
16:35 1017 30.03 846 24.98 -8.3 17 81 -11 12.2
16:40 1017 30.03 847 25.01 -8.3 17 82 -10.8 12.5
16:45 1017 30.03 847 25.01 -8.2 17.2 82 -10.8 12.5
16:50 1017 30.03 847 25.01 -8.3 17 83 -10.8 12.6
16:55 1018 30.06 847 25.01 -8.3 17 82 -11 12.3
17:00 1018 30.06 847 25.01 -8.4 16.8 82 -11 12.2
17:05 1018 30.06 847 25.01 -8.5 16.8 83 -10.9 12.3
17:10 1018 30.06 847 25.01 -8.4 16.8 83 -10.8 12.5
17:15 1018 30.06 847 25.01 -8.5 16.7 82 -11 12.3
17:20 1018 30.06 847 25.01 -8.7 16.3 83 -11.1 12.1
17:25 1018 30.06 847 25.01 -8.7 16.4 83 -11 12.1
17:30 1018 30.06 847 25.01 -8.8 16.2 84 -11.1 12.1
17:35 1018 30.06 847 25.01 -8.9 15.9 83 -11.3 11.7
17:40 1018 30.06 847 25.01 -9.1 15.7 84 -11.3 11.7
17:45 1018 30.06 847 25.01 -9.1 15.6 84 -11.3 11.6
17:50 1018 30.06 847 25.01 -9.1 15.6 84 -11.3 11.7
17:55 1018 30.06 847 25.01 -9.1 15.6 84 -11.3 11.7
18:00 1018 30.06 847 25.01 -9.2 15.5 84 -11.3 11.6
18:05 1018 30.06 847 25.01 -9.2 15.4 85 -11.2 11.8
18:10 1018 30.06 848 25.04 -9.2 15.4 85 -11.3 11.6
18:15 1018 30.06 848 25.04 -9.3 15.3 85 -11.4 11.5
18:20 1018 30.06 848 25.04 -9.4 15.1 86 -11.3 11.6
18:25 1018 30.06 848 25.04 -9.3 15.2 85 -11.4 11.5
18:30 1018 30.06 848 25.04 -9.4 15.1 86 -11.4 11.5
18:35 1018 30.06 848 25.04 -9.4 15.2 86 -11.2 11.8
18:40 1018 30.06 848 25.04 -9.2 15.4 86 -11.1 12
18:45 1018 30.06 848 25.04 -9.2 15.5 86 -11.1 12
18:50 1019 30.09 848 25.04 -9.1 15.7 86 -11 12.2
18:55 1019 30.09 848 25.04 -9.1 15.6 86 -11 12.2
19:00 1019 30.09 848 25.04 -9.1 15.7 87 -10.9 12.3
19:05 1019 30.09 848 25.04 -9 15.8 86 -10.9 12.4
19:10 1019 30.09 848 25.04 -9 15.9 86 -10.8 12.5
19:15 1019 30.09 848 25.04 -8.9 16.1 86 -10.7 12.7
19:20 1019 30.09 848 25.04 -8.8 16.1 86 -10.8 12.6
19:25 1019 30.09 848 25.04 -9 15.7 86 -11 12.2
19:30 1019 30.09 848 25.04 -9.1 15.6 86 -11.1 12
19:35 1019 30.09 848 25.04 -9.4 15.1 87 -11.1 12
19:40 1019 30.09 848 25.04 -9.5 14.8 88 -11.2 11.8
19:45 1019 30.09 848 25.04 -9.6 14.8 88 -11.3 11.7
19:50 1019 30.09 848 25.04 -9.5 14.9 87 -11.2 11.8
19:55 1019 30.09 848 25.04 -9.6 14.8 87 -11.3 11.6
20:00 1019 30.09 848 25.04 -9.7 14.5 88 -11.4 11.4
20:05 1019 30.09 848 25.04 -9.8 14.4 88 -11.4 11.4
20:10 1019 30.09 848 25.04 -9.8 14.4 88 -11.4 11.5
20:15 1019 30.09 848 25.04 -9.7 14.5 88 -11.4 11.5
20:20 1019 30.09 848 25.04 -9.7 14.5 88 -11.4 11.6
20:25 1019 30.09 848 25.04 -9.7 14.6 88 -11.3 11.6
20:30 1019 30.09 848 25.04 -9.7 14.6 88 -11.3 11.7
20:35 1019 30.09 848 25.04 -9.6 14.7 88 -11.2 11.9
20:40 1019 30.09 848 25.04 -9.5 15 88 -11.1 12.1
20:45 1019 30.09 848 25.04 -9.4 15.1 88 -11 12.2
20:50 1019 30.09 848 25.04 -9.4 15.1 88 -11 12.2
20:55 1019 30.09 848 25.04 -9.3 15.2 89 -10.9 12.4
21:00 1019 30.09 848 25.04 -9.2 15.4 88 -10.8 12.6
21:05 1019 30.09 848 25.04 -9.1 15.6 88 -10.7 12.7
21:10 1019 30.09 848 25.04 -9.1 15.6 88 -10.7 12.8
21:15 1019 30.09 848 25.04 -9.1 15.7 88 -10.6 12.8
21:20 1019 30.09 848 25.04 -9 15.8 89 -10.6 12.9
21:25 1019 30.09 848 25.04 -8.9 16 88 -10.5 13.1
21:30 1019 30.09 848 25.04 -8.9 16 88 -10.6 13
21:35 1019 30.09 848 25.04 -9 15.7 88 -10.7 12.7
21:40 1018 30.06 848 25.04 -9.1 15.7 88 -10.8 12.6
21:45 1018 30.06 848 25.04 -9.1 15.6 88 -10.8 12.6
21:50 1018 30.06 848 25.04 -9.1 15.6 88 -10.8 12.6
21:55 1019 30.09 848 25.04 -9.1 15.7 88 -10.8 12.6
22:00 1019 30.09 848 25.04 -9.2 15.5 88 -10.9 12.4
22:05 1019 30.09 848 25.04 -9.2 15.4 88 -10.9 12.3
22:10 1019 30.09 848 25.04 -9.2 15.4 88 -10.9 12.4
22:15 1019 30.09 848 25.04 -9.2 15.5 88 -10.8 12.5
22:20 1019 30.09 848 25.04 -9.1 15.6 88 -10.7 12.7
22:25 1019 30.09 848 25.04 -9 15.8 88 -10.7 12.8
22:30 1019 30.09 848 25.04 -8.9 15.9 88 -10.6 12.9
22:35 1019 30.09 848 25.04 -8.9 16 88 -10.5 13.1
22:40 1019 30.09 848 25.04 -8.8 16.1 88 -10.5 13.2
22:45 1019 30.09 848 25.04 -8.9 16.1 88 -10.5 13.2
22:50 1019 30.09 848 25.04 -8.8 16.2 88 -10.4 13.3
22:55 1019 30.09 848 25.04 -8.7 16.4 89 -10.2 13.7
23:00 1019 30.09 848 25.04 -8.5 16.8 89 -10 14
23:05 1019 30.09 848 25.04 -8.3 17 89 -9.8 14.3
23:10 1019 30.09 848 25.04 -8.1 17.4 88 -9.7 14.6
23:15 1019 30.09 848 25.04 -8.1 17.4 88 -9.7 14.5
23:20 1019 30.09 848 25.04 -8.1 17.4 89 -9.6 14.6
23:25 1019 30.09 848 25.04 -8 17.6 89 -9.6 14.8
23:30 1019 30.09 848 25.04 -8 17.6 89 -9.6 14.8
23:35 1019 30.09 848 25.04 -7.9 17.7 89 -9.5 14.9
23:40 1019 30.09 848 25.04 -8 17.5 87 -9.8 14.4
23:45 1019 30.09 848 25.04 -8.3 17.2 87 -10 13.9
23:50 1019 30.09 848 25.04 -8.4 16.8 87 -10.2 13.7
23:55 1019 30.09 848 25.04 -8.5 16.7 87 -10.3 13.5
24:00 1019 30.09 848 25.04 -8.5 16.7 88 -10.2 13.7